createdAt,value
2019-03-15T00:00:30.909Z,5.1
2019-03-15T00:01:21.072Z,5.1
2019-03-15T00:02:10.873Z,5.1
2019-03-15T00:03:00.876Z,5.1
2019-03-15T00:03:50.892Z,5.1
2019-03-15T00:04:40.889Z,5.1
2019-03-15T00:05:30.841Z,5.1
2019-03-15T00:06:21.066Z,5.1
2019-03-15T00:07:10.867Z,5.1
2019-03-15T00:08:00.878Z,5.1
2019-03-15T00:08:52.042Z,5.2
2019-03-15T00:09:41.999Z,5.2
2019-03-15T00:10:31.991Z,5.2
2019-03-15T00:11:21.952Z,5.2
2019-03-15T00:12:12.495Z,5.2
2019-03-15T00:13:02.447Z,5.2
2019-03-15T00:13:52.537Z,5.2
2019-03-15T00:14:42.440Z,5.2
2019-03-15T00:15:32.787Z,5.2
2019-03-15T00:16:22.517Z,5.2
2019-03-15T00:17:12.506Z,5.2
2019-03-15T00:18:02.493Z,5.2
2019-03-15T00:18:52.513Z,5.3
2019-03-15T00:19:42.524Z,5.3
2019-03-15T00:20:32.498Z,5.3
2019-03-15T00:21:22.465Z,5.3
2019-03-15T00:22:12.474Z,5.3
2019-03-15T00:23:02.597Z,5.3
2019-03-15T00:23:52.480Z,5.3
2019-03-15T00:24:43.099Z,5.3
2019-03-15T00:25:32.731Z,5.3
2019-03-15T00:26:22.717Z,5.4
2019-03-15T00:27:12.761Z,5.4
2019-03-15T00:28:02.751Z,5.3
2019-03-15T00:28:52.723Z,5.4
2019-03-15T00:29:42.735Z,5.4
2019-03-15T00:30:33.721Z,5.4
2019-03-15T00:31:23.616Z,5.4
2019-03-15T00:32:13.631Z,5.4
2019-03-15T00:33:03.616Z,5.4
2019-03-15T00:33:53.622Z,5.4
2019-03-15T00:34:43.605Z,5.4
2019-03-15T00:35:33.598Z,5.4
2019-03-15T00:36:23.620Z,5.4
2019-03-15T00:37:13.776Z,5.4
2019-03-15T00:38:03.622Z,5.4
2019-03-15T00:38:53.955Z,5.5
2019-03-15T00:39:43.662Z,5.5
2019-03-15T00:40:33.663Z,5.5
2019-03-15T00:41:23.624Z,5.5
2019-03-15T00:42:13.615Z,5.5
2019-03-15T00:43:03.648Z,5.5
2019-03-15T00:43:53.602Z,5.5
2019-03-15T00:44:43.623Z,5.5
2019-03-15T00:45:33.777Z,5.5
2019-03-15T00:46:24.578Z,5.5
2019-03-15T00:47:14.576Z,5.5
2019-03-15T00:48:04.616Z,5.5
2019-03-15T00:48:54.627Z,5.5
2019-03-15T00:49:44.594Z,5.5
2019-03-15T00:50:34.661Z,5.5
2019-03-15T00:51:24.604Z,5.5
2019-03-15T00:52:16.208Z,5.6
2019-03-15T00:53:06.208Z,5.6
2019-03-15T00:53:56.186Z,5.5
2019-03-15T00:54:46.215Z,5.5
2019-03-15T00:55:36.794Z,5.5
2019-03-15T00:56:26.493Z,5.5
2019-03-15T00:57:16.954Z,5.5
2019-03-15T00:58:06.485Z,5.5
2019-03-15T00:58:56.546Z,5.5
2019-03-15T00:59:46.494Z,5.5
2019-03-15T01:00:36.448Z,5.6
2019-03-15T01:01:26.519Z,5.6
2019-03-15T01:02:16.492Z,5.6
2019-03-15T01:03:06.475Z,5.6
2019-03-15T01:03:56.493Z,5.6
2019-03-15T01:04:47.526Z,5.6
2019-03-15T01:05:37.537Z,5.6
2019-03-15T01:06:27.478Z,5.6
2019-03-15T01:07:17.484Z,5.6
2019-03-15T01:08:07.521Z,5.6
2019-03-15T01:08:58.001Z,5.6
2019-03-15T01:09:48.618Z,5.6
2019-03-15T01:10:37.789Z,5.6
2019-03-15T01:11:28.267Z,5.6
2019-03-15T01:12:18.030Z,5.6
2019-03-15T01:13:07.991Z,5.6
2019-03-15T01:13:58.022Z,5.6
2019-03-15T01:14:47.994Z,5.6
2019-03-15T01:15:37.973Z,5.6
2019-03-15T01:16:28.024Z,5.6
2019-03-15T01:17:18.896Z,5.6
2019-03-15T01:18:08.525Z,5.6
2019-03-15T01:18:58.523Z,5.6
2019-03-15T01:19:48.530Z,5.6
2019-03-15T01:20:38.664Z,5.6
2019-03-15T01:21:28.592Z,5.6
2019-03-15T01:22:18.591Z,5.6
2019-03-15T01:23:08.564Z,5.6
2019-03-15T01:23:58.506Z,5.6
2019-03-15T01:24:49.702Z,5.6
2019-03-15T01:25:39.553Z,5.6
2019-03-15T01:26:30.818Z,5.6
2019-03-15T01:27:20.786Z,5.6
2019-03-15T01:28:10.807Z,5.7
2019-03-15T01:29:01.558Z,5.7
2019-03-15T01:29:51.562Z,5.7
2019-03-15T01:30:41.436Z,5.7
2019-03-15T01:31:31.444Z,5.6
2019-03-15T01:32:21.443Z,5.6
2019-03-15T01:33:11.425Z,5.7
2019-03-15T01:34:01.447Z,5.7
2019-03-15T01:34:51.434Z,5.7
2019-03-15T01:35:41.458Z,5.7
2019-03-15T01:36:31.461Z,5.7
2019-03-15T01:37:22.073Z,5.7
2019-03-15T01:38:11.423Z,5.7
2019-03-15T01:39:01.457Z,5.7
2019-03-15T01:39:51.438Z,5.7
2019-03-15T01:40:41.426Z,5.7
2019-03-15T01:41:32.498Z,5.7
2019-03-15T01:42:22.408Z,5.7
2019-03-15T01:43:13.272Z,5.7
2019-03-15T01:44:03.347Z,5.7
2019-03-15T01:44:53.276Z,5.7
2019-03-15T01:45:43.440Z,5.8
2019-03-15T01:46:32.384Z,5.8
2019-03-15T01:47:22.400Z,5.8
2019-03-15T01:48:12.456Z,5.8
2019-03-15T01:49:02.487Z,5.8
2019-03-15T01:49:52.890Z,5.8
2019-03-15T01:50:42.867Z,5.8
2019-03-15T01:51:32.878Z,5.8
2019-03-15T01:52:22.923Z,5.8
2019-03-15T01:53:13.050Z,5.8
2019-03-15T01:54:02.909Z,5.8
2019-03-15T01:54:52.972Z,5.8
2019-03-15T01:55:43.005Z,5.8
2019-03-15T01:56:32.900Z,5.8
2019-03-15T01:57:23.032Z,5.8
2019-03-15T01:58:14.124Z,5.8
2019-03-15T01:59:03.695Z,5.8
2019-03-15T01:59:53.495Z,5.8
2019-03-15T02:00:43.707Z,5.8
2019-03-15T02:01:33.561Z,5.8
2019-03-15T02:02:23.494Z,5.7
2019-03-15T02:03:13.816Z,5.7
2019-03-15T02:04:03.490Z,5.7
2019-03-15T02:04:53.502Z,5.7
2019-03-15T02:05:44.366Z,5.7
2019-03-15T02:06:33.491Z,5.7
2019-03-15T02:07:23.474Z,5.7
2019-03-15T02:08:13.525Z,5.7
2019-03-15T02:09:03.497Z,5.7
2019-03-15T02:09:53.513Z,5.7
2019-03-15T02:10:45.000Z,5.7
2019-03-15T02:11:33.453Z,5.7
2019-03-15T02:12:23.507Z,5.7
2019-03-15T02:13:13.486Z,5.7
2019-03-15T02:14:03.461Z,5.7
2019-03-15T02:14:53.561Z,5.7
2019-03-15T02:15:44.499Z,5.7
2019-03-15T02:16:34.429Z,5.7
2019-03-15T02:17:24.055Z,5.7
2019-03-15T02:18:14.134Z,5.7
2019-03-15T02:19:04.085Z,5.7
2019-03-15T02:19:54.082Z,5.7
2019-03-15T02:20:44.263Z,5.7
2019-03-15T02:21:34.082Z,5.8
2019-03-15T02:22:24.074Z,5.8
2019-03-15T02:23:14.060Z,5.8
2019-03-15T02:24:04.344Z,5.8
2019-03-15T02:24:54.078Z,5.8
2019-03-15T02:25:46.993Z,5.8
2019-03-15T02:26:34.056Z,5.8
2019-03-15T02:27:24.801Z,5.8
2019-03-15T02:28:14.077Z,5.8
2019-03-15T02:29:04.085Z,5.7
2019-03-15T02:29:54.074Z,5.7
2019-03-15T02:30:44.202Z,5.7
2019-03-15T02:31:34.144Z,5.8
2019-03-15T02:32:24.090Z,5.7
2019-03-15T02:33:14.098Z,5.7
2019-03-15T02:34:04.256Z,5.7
2019-03-15T02:34:54.247Z,5.7
2019-03-15T02:35:44.059Z,5.7
2019-03-15T02:36:34.060Z,5.7
2019-03-15T02:37:24.424Z,5.7
2019-03-15T02:38:14.090Z,5.7
2019-03-15T02:39:04.074Z,5.7
2019-03-15T02:39:54.080Z,5.7
2019-03-15T02:40:45.423Z,5.7
2019-03-15T02:41:35.124Z,5.7
2019-03-15T02:42:26.021Z,5.7
2019-03-15T02:43:15.158Z,5.7
2019-03-15T02:44:05.125Z,5.7
2019-03-15T02:44:55.527Z,5.7
2019-03-15T02:45:45.197Z,5.7
2019-03-15T02:46:35.161Z,5.7
2019-03-15T02:47:25.174Z,5.7
2019-03-15T02:48:15.232Z,5.7
2019-03-15T02:49:05.151Z,5.7
2019-03-15T02:49:55.144Z,5.7
2019-03-15T02:50:45.198Z,5.7
2019-03-15T02:51:35.175Z,5.7
2019-03-15T02:52:25.204Z,5.6
2019-03-15T02:53:15.188Z,5.6
2019-03-15T02:54:05.143Z,5.6
2019-03-15T02:54:55.236Z,5.6
2019-03-15T02:55:45.440Z,5.6
2019-03-15T02:56:35.159Z,5.6
2019-03-15T02:57:25.212Z,5.6
2019-03-15T02:58:15.130Z,5.6
2019-03-15T02:59:05.176Z,5.6
2019-03-15T02:59:55.155Z,5.6
2019-03-15T03:00:45.202Z,5.6
2019-03-15T03:01:35.170Z,5.6
2019-03-15T03:02:25.177Z,5.6
2019-03-15T03:03:15.266Z,5.6
2019-03-15T03:04:05.211Z,5.6
2019-03-15T03:04:55.153Z,5.6
2019-03-15T03:05:45.208Z,5.6
2019-03-15T03:06:35.144Z,5.6
2019-03-15T03:07:25.151Z,5.6
2019-03-15T03:08:15.175Z,5.6
2019-03-15T03:09:05.133Z,5.6
2019-03-15T03:09:56.330Z,5.6
2019-03-15T03:10:45.787Z,5.6
2019-03-15T03:11:35.791Z,5.6
2019-03-15T03:12:25.899Z,5.6
2019-03-15T03:13:16.033Z,5.6
2019-03-15T03:14:06.109Z,5.6
2019-03-15T03:14:56.158Z,5.6
2019-03-15T03:15:46.212Z,5.6
2019-03-15T03:16:35.717Z,5.6
2019-03-15T03:17:25.680Z,5.6
2019-03-15T03:18:15.812Z,5.6
2019-03-15T03:19:05.819Z,5.6
2019-03-15T03:19:55.916Z,5.6
2019-03-15T03:20:48.161Z,5.6
2019-03-15T03:21:36.507Z,5.6
2019-03-15T03:22:26.744Z,5.6
2019-03-15T03:23:16.939Z,5.6
2019-03-15T03:24:06.936Z,5.6
2019-03-15T03:24:57.012Z,5.6
2019-03-15T03:25:46.522Z,5.6
2019-03-15T03:26:37.419Z,5.6
2019-03-15T03:27:27.647Z,5.6
2019-03-15T03:28:17.589Z,5.6
2019-03-15T03:29:07.590Z,5.6
2019-03-15T03:29:58.549Z,5.6
2019-03-15T03:30:47.633Z,5.6
2019-03-15T03:31:37.615Z,5.6
2019-03-15T03:32:27.788Z,5.6
2019-03-15T03:33:17.577Z,5.5
2019-03-15T03:34:07.673Z,5.6
2019-03-15T03:34:57.931Z,5.6
2019-03-15T03:35:47.559Z,5.6
2019-03-15T03:36:37.616Z,5.6
2019-03-15T03:37:27.618Z,5.6
2019-03-15T03:38:17.600Z,5.6
2019-03-15T03:39:07.659Z,5.5
2019-03-15T03:39:58.558Z,5.5
2019-03-15T03:40:47.581Z,5.5
2019-03-15T03:41:38.388Z,5.5
2019-03-15T03:42:28.389Z,5.5
2019-03-15T03:43:18.333Z,5.5
2019-03-15T03:44:08.339Z,5.5
2019-03-15T03:44:59.102Z,5.5
2019-03-15T03:45:48.319Z,5.5
2019-03-15T03:46:38.327Z,5.5
2019-03-15T03:47:28.345Z,5.5
2019-03-15T03:48:18.395Z,5.5
2019-03-15T03:49:08.565Z,5.5
2019-03-15T03:49:58.627Z,5.5
2019-03-15T03:50:48.668Z,5.5
2019-03-15T03:51:38.589Z,5.5
2019-03-15T03:52:28.584Z,5.4
2019-03-15T03:53:18.624Z,5.4
2019-03-15T03:54:08.587Z,5.4
2019-03-15T03:54:59.248Z,5.4
2019-03-15T03:55:48.634Z,5.4
2019-03-15T03:56:38.574Z,5.4
2019-03-15T03:57:28.585Z,5.4
2019-03-15T03:58:18.631Z,5.4
2019-03-15T03:59:08.831Z,5.4
2019-03-15T04:00:00.050Z,5.4
2019-03-15T04:00:49.510Z,5.4
2019-03-15T04:01:39.709Z,5.4
2019-03-15T04:02:32.653Z,5.4
2019-03-15T04:03:19.638Z,5.4
2019-03-15T04:04:09.652Z,5.4
2019-03-15T04:05:03.203Z,5.4
2019-03-15T04:05:49.894Z,5.4
2019-03-15T04:06:39.865Z,5.4
2019-03-15T04:07:29.916Z,5.4
2019-03-15T04:08:19.871Z,5.4
2019-03-15T04:09:09.892Z,5.4
2019-03-15T04:10:00.893Z,5.4
2019-03-15T04:10:49.924Z,5.4
2019-03-15T04:11:39.910Z,5.4
2019-03-15T04:12:29.854Z,5.4
2019-03-15T04:13:19.886Z,5.4
2019-03-15T04:14:09.951Z,5.4
2019-03-15T04:14:59.872Z,5.4
2019-03-15T04:15:49.920Z,5.4
2019-03-15T04:16:39.938Z,5.4
2019-03-15T04:17:29.976Z,5.4
2019-03-15T04:18:19.918Z,5.4
2019-03-15T04:19:09.980Z,5.4
2019-03-15T04:19:59.868Z,5.4
2019-03-15T04:20:49.947Z,5.4
2019-03-15T04:21:39.940Z,5.4
2019-03-15T04:22:29.908Z,5.4
2019-03-15T04:23:19.892Z,5.4
2019-03-15T04:24:12.166Z,5.5
2019-03-15T04:25:06.901Z,5.5
2019-03-15T04:25:52.133Z,5.5
2019-03-15T04:26:42.153Z,5.5
2019-03-15T04:27:32.191Z,5.5
2019-03-15T04:28:22.149Z,5.5
2019-03-15T04:29:12.223Z,5.5
2019-03-15T04:30:02.264Z,5.5
2019-03-15T04:30:52.221Z,5.5
2019-03-15T04:31:42.171Z,5.5
2019-03-15T04:32:32.146Z,5.5
2019-03-15T04:33:22.201Z,5.5
2019-03-15T04:34:11.983Z,5.5
2019-03-15T04:35:02.395Z,5.5
2019-03-15T04:35:52.171Z,5.5
2019-03-15T04:36:42.238Z,5.5
2019-03-15T04:37:32.023Z,5.5
2019-03-15T04:38:21.950Z,5.5
2019-03-15T04:39:13.884Z,5.6
2019-03-15T04:40:01.942Z,5.6
2019-03-15T04:40:51.961Z,5.6
2019-03-15T04:41:42.046Z,5.6
2019-03-15T04:42:31.963Z,5.6
2019-03-15T04:43:22.016Z,5.6
2019-03-15T04:44:12.437Z,5.6
2019-03-15T04:45:01.949Z,5.6
2019-03-15T04:45:51.981Z,5.6
2019-03-15T04:46:41.984Z,5.5
2019-03-15T04:47:32.031Z,5.5
2019-03-15T04:48:21.978Z,5.5
2019-03-15T04:49:11.985Z,5.5
2019-03-15T04:50:01.964Z,5.5
2019-03-15T04:50:51.984Z,5.6
2019-03-15T04:51:42.070Z,5.6
2019-03-15T04:52:31.959Z,5.6
2019-03-15T04:53:21.945Z,5.5
2019-03-15T04:54:14.559Z,5.5
2019-03-15T04:55:01.919Z,5.5
2019-03-15T04:55:51.971Z,5.5
2019-03-15T04:56:42.061Z,5.5
2019-03-15T04:57:31.991Z,5.6
2019-03-15T04:58:22.530Z,5.6
2019-03-15T04:59:12.513Z,5.5
2019-03-15T05:00:02.474Z,5.5
2019-03-15T05:00:52.496Z,5.5
2019-03-15T05:01:42.467Z,5.5
2019-03-15T05:02:32.560Z,5.5
2019-03-15T05:03:22.661Z,5.5
2019-03-15T05:04:13.215Z,5.5
2019-03-15T05:05:02.569Z,5.5
2019-03-15T05:06:02.849Z,5.5
2019-03-15T05:06:43.164Z,5.5
2019-03-15T05:07:33.257Z,5.5
2019-03-15T05:08:23.474Z,5.5
2019-03-15T05:09:13.214Z,5.5
2019-03-15T05:10:03.186Z,5.5
2019-03-15T05:10:53.191Z,5.5
2019-03-15T05:11:43.155Z,5.5
2019-03-15T05:12:33.267Z,5.5
2019-03-15T05:13:24.042Z,5.5
2019-03-15T05:14:15.526Z,5.5
2019-03-15T05:15:03.856Z,5.5
2019-03-15T05:15:53.846Z,5.5
2019-03-15T05:16:45.903Z,5.5
2019-03-15T05:17:40.444Z,5.4
2019-03-15T05:18:31.503Z,5.5
2019-03-15T05:19:21.490Z,5.4
2019-03-15T05:20:12.532Z,5.4
2019-03-15T05:21:01.517Z,5.4
2019-03-15T05:21:51.517Z,5.4
2019-03-15T05:22:41.504Z,5.4
2019-03-15T05:23:31.648Z,5.4
2019-03-15T05:24:21.716Z,5.4
2019-03-15T05:25:13.212Z,5.4
2019-03-15T05:26:01.747Z,5.4
2019-03-15T05:26:51.716Z,5.4
2019-03-15T05:27:43.848Z,5.4
2019-03-15T05:28:33.965Z,5.4
2019-03-15T05:29:23.850Z,5.4
2019-03-15T05:30:13.765Z,5.4
2019-03-15T05:31:04.054Z,5.4
2019-03-15T05:31:54.056Z,5.4
2019-03-15T05:32:44.181Z,5.4
2019-03-15T05:33:34.063Z,5.4
2019-03-15T05:34:24.054Z,5.3
2019-03-15T05:35:14.335Z,5.4
2019-03-15T05:36:04.058Z,5.4
2019-03-15T05:36:54.106Z,5.4
2019-03-15T05:37:44.078Z,5.3
2019-03-15T05:38:34.947Z,5.4
2019-03-15T05:39:24.639Z,5.4
2019-03-15T05:40:19.425Z,5.4
2019-03-15T05:41:08.683Z,5.4
2019-03-15T05:41:58.728Z,5.4
2019-03-15T05:42:51.625Z,5.4
2019-03-15T05:43:41.552Z,5.3
2019-03-15T05:44:31.740Z,5.4
2019-03-15T05:45:21.502Z,5.4
2019-03-15T05:46:11.974Z,5.4
2019-03-15T05:47:01.799Z,5.3
2019-03-15T05:47:54.854Z,5.4
2019-03-15T05:48:44.575Z,5.4
2019-03-15T05:49:34.571Z,5.4
2019-03-15T05:50:24.630Z,5.4
2019-03-15T05:51:14.566Z,5.4
2019-03-15T05:52:04.564Z,5.4
2019-03-15T05:52:54.563Z,5.4
2019-03-15T05:53:44.569Z,5.4
2019-03-15T05:54:34.547Z,5.4
2019-03-15T05:55:24.671Z,5.4
2019-03-15T05:56:14.566Z,5.4
2019-03-15T05:57:04.576Z,5.4
2019-03-15T05:57:54.585Z,5.4
2019-03-15T05:58:44.590Z,5.4
2019-03-15T05:59:34.625Z,5.4
2019-03-15T06:00:24.599Z,5.4
2019-03-15T06:01:14.566Z,5.4
2019-03-15T06:02:04.577Z,5.4
2019-03-15T06:02:54.820Z,5.4
2019-03-15T06:03:48.721Z,5.3
2019-03-15T06:04:34.583Z,5.4
2019-03-15T06:05:24.594Z,5.4
2019-03-15T06:06:14.586Z,5.4
2019-03-15T06:07:04.593Z,5.4
2019-03-15T06:07:54.592Z,5.4
2019-03-15T06:08:44.559Z,5.4
2019-03-15T06:09:34.642Z,5.4
2019-03-15T06:10:24.644Z,5.4
2019-03-15T06:11:14.821Z,5.4
2019-03-15T06:12:05.552Z,5.3
2019-03-15T06:12:55.599Z,5.4
2019-03-15T06:13:45.612Z,5.4
2019-03-15T06:14:35.547Z,5.4
2019-03-15T06:15:25.581Z,5.4
2019-03-15T06:16:15.564Z,5.4
2019-03-15T06:17:05.612Z,5.4
2019-03-15T06:17:55.556Z,5.4
2019-03-15T06:18:46.096Z,5.4
2019-03-15T06:19:35.622Z,5.4
2019-03-15T06:20:27.206Z,5.4
2019-03-15T06:21:16.088Z,5.4
2019-03-15T06:22:05.574Z,5.4
2019-03-15T06:22:55.828Z,5.4
2019-03-15T06:23:45.752Z,5.4
2019-03-15T06:24:35.649Z,5.4
2019-03-15T06:25:26.397Z,5.4
2019-03-15T06:26:21.041Z,5.4
2019-03-15T06:27:11.555Z,5.4
2019-03-15T06:28:01.496Z,5.4
2019-03-15T06:28:51.464Z,5.4
2019-03-15T06:29:41.458Z,5.4
2019-03-15T06:30:32.350Z,5.4
2019-03-15T06:31:24.227Z,5.4
2019-03-15T06:32:12.343Z,5.4
2019-03-15T06:33:02.308Z,5.4
2019-03-15T06:33:52.435Z,5.4
2019-03-15T06:34:42.344Z,5.5
2019-03-15T06:35:32.327Z,5.5
2019-03-15T06:36:25.112Z,5.5
2019-03-15T06:37:12.296Z,5.5
2019-03-15T06:38:02.313Z,5.5
2019-03-15T06:50:31.116Z,5.5
2019-03-15T07:12:08.575Z,5.7
2019-03-15T07:12:45.418Z,5.7
2019-03-15T07:51:40.326Z,6
2019-03-15T07:53:41.720Z,6
2019-03-15T09:01:50.645Z,7.2
2019-03-15T09:26:42.090Z,7.5
2019-03-15T09:27:32.044Z,7.5
2019-03-15T09:48:06.059Z,7.9
2019-03-15T09:48:59.463Z,7.9
2019-03-15T10:01:34.596Z,8.2
2019-03-15T10:02:15.480Z,8.2
2019-03-15T10:47:07.378Z,9.7
2019-03-15T10:47:58.083Z,9.7
2019-03-15T10:48:49.242Z,9.7
2019-03-15T11:03:08.359Z,10
2019-03-15T11:03:57.934Z,10
2019-03-15T11:04:49.931Z,10.1
2019-03-15T11:05:40.318Z,10.1
2019-03-15T11:06:30.899Z,10.1
2019-03-15T11:32:08.725Z,10.5
2019-03-15T11:32:57.619Z,10.5
2019-03-15T11:33:47.794Z,10.6
2019-03-15T11:34:37.930Z,10.6
2019-03-15T11:35:28.591Z,10.6
2019-03-15T11:36:20.795Z,10.6
2019-03-15T11:37:13.933Z,10.6
2019-03-15T11:38:01.173Z,10.6
2019-03-15T11:38:53.127Z,10.6
2019-03-15T11:39:44.584Z,10.7
2019-03-15T11:40:37.851Z,10.7
2019-03-15T11:41:25.255Z,10.7
2019-03-15T11:42:16.011Z,10.7
2019-03-15T11:43:06.842Z,10.7
2019-03-15T12:00:55.787Z,10.8
2019-03-15T12:01:46.430Z,10.8
2019-03-15T12:02:42.017Z,10.8
2019-03-15T12:03:31.958Z,10.9
2019-03-15T12:04:22.567Z,10.9
2019-03-15T12:05:13.549Z,10.9
2019-03-15T12:06:04.214Z,10.9
2019-03-15T12:06:54.507Z,10.9
2019-03-15T12:07:44.679Z,11
2019-03-15T12:08:35.428Z,11
2019-03-15T12:09:25.550Z,11
2019-03-15T12:10:16.117Z,11
2019-03-15T12:11:06.112Z,11
2019-03-15T12:11:56.898Z,11
2019-03-15T12:12:47.534Z,11
2019-03-15T12:13:37.653Z,11.1
2019-03-15T12:14:40.037Z,11.1
2019-03-15T12:15:19.584Z,11.1
2019-03-15T12:16:09.502Z,11.1
2019-03-15T12:16:59.604Z,11.1
2019-03-15T12:17:57.355Z,11.1
2019-03-15T12:18:53.003Z,11.1
2019-03-15T12:19:43.535Z,11.1
2019-03-15T12:20:36.100Z,11.1
2019-03-15T12:21:26.059Z,11.1
2019-03-15T12:22:17.441Z,11.1
2019-03-15T12:23:06.474Z,11.1
2019-03-15T12:23:56.746Z,11.1
2019-03-15T12:24:47.221Z,11.2
2019-03-15T12:25:37.411Z,11.2
2019-03-15T12:26:39.667Z,11.2
2019-03-15T12:28:29.267Z,11.2
2019-03-15T12:29:20.983Z,11.2
2019-03-15T12:30:12.381Z,11.2
2019-03-15T12:31:02.638Z,11.2
2019-03-15T12:31:52.862Z,11.2
2019-03-15T12:32:43.099Z,11.2
2019-03-15T12:33:33.081Z,11.2
2019-03-15T12:34:37.865Z,11.2
2019-03-15T12:35:29.483Z,11.2
2019-03-15T12:36:19.737Z,11.2
2019-03-15T12:37:11.067Z,11.2
2019-03-15T12:38:01.827Z,11.3
2019-03-15T12:38:52.495Z,11.3
2019-03-15T12:39:42.473Z,11.2
2019-03-15T12:40:33.320Z,11.2
2019-03-15T12:41:24.944Z,11.2
2019-03-15T12:42:14.431Z,11.3
2019-03-15T12:43:05.246Z,11.2
2019-03-15T12:43:55.558Z,11.2
2019-03-15T12:44:46.402Z,11.2
2019-03-15T12:45:37.299Z,11.2
2019-03-15T12:46:27.358Z,11.2
2019-03-15T12:47:20.599Z,11.2
2019-03-15T12:48:10.454Z,11.2
2019-03-15T12:49:00.564Z,11.2
2019-03-15T13:01:26.075Z,11.3
2019-03-15T13:02:16.162Z,11.3
2019-03-15T13:03:06.246Z,11.3
2019-03-15T13:03:56.926Z,11.3
2019-03-15T13:04:46.852Z,11.3
2019-03-15T13:05:36.811Z,11.3
2019-03-15T13:06:26.802Z,11.3
2019-03-15T13:07:16.766Z,11.4
2019-03-15T13:08:06.867Z,11.4
2019-03-15T13:08:57.021Z,11.4
2019-03-15T13:09:48.051Z,11.4
2019-03-15T13:10:38.594Z,11.4
2019-03-15T13:11:28.987Z,11.4
2019-03-15T13:12:24.654Z,11.4
2019-03-15T13:13:12.733Z,11.4
2019-03-15T13:14:02.754Z,11.4
2019-03-15T13:14:52.710Z,11.4
2019-03-15T13:15:43.756Z,11.4
2019-03-15T13:16:33.690Z,11.4
2019-03-15T13:17:28.238Z,11.4
2019-03-15T13:18:14.676Z,11.4
2019-03-15T13:19:04.815Z,11.4
2019-03-15T13:19:55.649Z,11.4
2019-03-15T13:20:44.753Z,11.4
2019-03-15T13:21:35.472Z,11.4
2019-03-15T13:22:25.568Z,11.4
2019-03-15T13:23:16.405Z,11.4
2019-03-15T13:42:50.742Z,11.6
2019-03-15T13:43:41.480Z,11.6
2019-03-15T13:44:32.252Z,11.6
2019-03-15T13:45:27.789Z,11.6
2019-03-15T13:46:17.131Z,11.6
2019-03-15T13:47:07.249Z,11.6
2019-03-15T13:47:58.074Z,11.6
2019-03-15T13:48:49.957Z,11.5
2019-03-15T13:49:40.145Z,11.5
2019-03-15T13:50:30.745Z,11.5
2019-03-15T13:51:22.778Z,11.5
2019-03-15T13:52:23.871Z,11.5
2019-03-15T13:53:31.512Z,11.5
2019-03-15T14:21:28.552Z,11.3
2019-03-15T14:22:32.101Z,11.3
2019-03-15T14:24:37.442Z,11.3
2019-03-15T14:25:27.381Z,11.3
2019-03-15T14:26:17.393Z,11.2
2019-03-15T14:27:07.370Z,11.2
2019-03-15T14:27:57.425Z,11.2
2019-03-15T14:28:47.402Z,11.2
2019-03-15T14:29:38.740Z,11.2
2019-03-15T14:30:58.146Z,11.2
2019-03-15T14:31:17.371Z,11.2
2019-03-15T14:32:07.471Z,11.3
2019-03-15T14:32:57.371Z,11.3
2019-03-15T14:33:47.391Z,11.3
2019-03-15T14:34:37.348Z,11.3
2019-03-15T14:35:27.380Z,11.3
2019-03-15T14:36:17.381Z,11.3
2019-03-15T14:37:10.157Z,11.3
2019-03-15T14:37:57.447Z,11.4
2019-03-15T14:38:47.452Z,11.4
2019-03-15T14:39:37.506Z,11.4
2019-03-15T14:40:27.532Z,11.4
2019-03-15T14:41:17.424Z,11.4
2019-03-15T14:42:07.417Z,11.5
2019-03-15T14:42:57.577Z,11.5
2019-03-15T14:43:47.470Z,11.5
2019-03-15T14:44:38.549Z,11.5
2019-03-15T14:45:27.392Z,11.5
2019-03-15T14:46:18.247Z,11.5
2019-03-15T14:47:08.240Z,11.5
2019-03-15T14:47:58.215Z,11.5
2019-03-15T14:48:48.294Z,11.5
2019-03-15T14:49:39.150Z,11.5
2019-03-15T14:50:28.249Z,11.5
2019-03-15T14:51:18.229Z,11.5
2019-03-15T14:52:08.426Z,11.5
2019-03-15T14:52:58.248Z,11.5
2019-03-15T14:53:48.306Z,11.5
2019-03-15T14:54:38.244Z,11.5
2019-03-15T14:55:28.198Z,11.5
2019-03-15T14:56:18.222Z,11.5
2019-03-15T14:57:08.266Z,11.5
2019-03-15T14:58:00.081Z,11.6
2019-03-15T14:58:49.079Z,11.6
2019-03-15T14:59:38.415Z,11.6
2019-03-15T15:00:28.207Z,11.6
2019-03-15T15:01:18.275Z,11.6
2019-03-15T15:02:08.170Z,11.6
2019-03-15T15:02:58.258Z,11.6
2019-03-15T15:03:49.289Z,11.6
2019-03-15T15:04:38.287Z,11.5
2019-03-15T15:05:28.318Z,11.5
2019-03-15T15:06:18.237Z,11.5
2019-03-15T15:07:08.256Z,11.5
2019-03-15T15:07:58.240Z,11.5
2019-03-15T15:08:49.488Z,11.5
2019-03-15T15:09:38.217Z,11.5
2019-03-15T15:10:28.234Z,11.5
2019-03-15T15:11:18.217Z,11.5
2019-03-15T15:12:08.219Z,11.5
2019-03-15T15:12:58.225Z,11.5
2019-03-15T15:13:48.234Z,11.5
2019-03-15T15:14:38.204Z,11.5
2019-03-15T15:15:28.674Z,11.5
2019-03-15T15:16:20.696Z,11.6
2019-03-15T15:17:10.651Z,11.6
2019-03-15T15:18:01.771Z,11.6
2019-03-15T15:18:50.930Z,11.6
2019-03-15T15:19:41.285Z,11.6
2019-03-15T15:20:30.646Z,11.6
2019-03-15T15:21:20.748Z,11.6
2019-03-15T15:23:34.758Z,11.5
2019-03-15T15:24:24.695Z,11.5
2019-03-15T15:25:14.955Z,11.5
2019-03-15T15:26:04.573Z,11.5
2019-03-15T15:26:54.574Z,11.5
2019-03-15T15:27:44.628Z,11.5
2019-03-15T15:28:34.611Z,11.5
2019-03-15T15:29:24.559Z,11.5
2019-03-15T15:30:14.594Z,11.5
2019-03-15T15:31:04.664Z,11.5
2019-03-15T15:31:54.855Z,11.5
2019-03-15T15:32:44.586Z,11.5
2019-03-15T15:33:40.372Z,11.5
2019-03-15T15:34:30.243Z,11.4
2019-03-15T15:35:20.324Z,11.4
2019-03-15T15:36:10.321Z,11.4
2019-03-15T15:37:00.569Z,11.5
2019-03-15T15:37:50.381Z,11.5
2019-03-15T15:38:40.239Z,11.4
2019-03-15T15:39:30.270Z,11.5
2019-03-15T15:40:20.273Z,11.4
2019-03-15T15:41:10.270Z,11.4
2019-03-15T15:42:00.619Z,11.4
2019-03-15T15:42:50.286Z,11.4
2019-03-15T15:43:41.770Z,11.4
2019-03-15T15:44:30.263Z,11.4
2019-03-15T15:45:20.383Z,11.4
2019-03-15T15:46:10.278Z,11.4
2019-03-15T15:47:00.588Z,11.4
2019-03-15T15:47:50.485Z,11.4
2019-03-15T15:48:40.557Z,11.4
2019-03-15T15:49:30.494Z,11.4
2019-03-15T15:50:20.628Z,11.4
2019-03-15T15:51:10.585Z,11.3
2019-03-15T15:52:00.862Z,11.3
2019-03-15T15:52:50.822Z,11.3
2019-03-15T15:53:41.307Z,11.3
2019-03-15T15:54:32.139Z,11.3
2019-03-15T15:55:22.115Z,11.3
2019-03-15T15:56:12.042Z,11.3
2019-03-15T15:57:02.391Z,11.2
2019-03-15T15:57:55.557Z,11.2
2019-03-15T15:58:47.277Z,11.2
2019-03-15T15:59:37.314Z,11.2
2019-03-15T16:00:28.614Z,11.2
2019-03-15T16:01:18.916Z,11.2
2019-03-15T16:02:09.319Z,11.2
2019-03-15T16:02:59.265Z,11.2
2019-03-15T16:03:49.257Z,11.2
2019-03-15T16:04:44.320Z,11.2
2019-03-15T16:05:34.310Z,11.2
2019-03-15T16:06:24.935Z,11.2
2019-03-15T16:07:14.946Z,11.2
2019-03-15T16:08:04.936Z,11.2
2019-03-15T16:08:54.930Z,11.2
2019-03-15T16:09:45.178Z,11.2
2019-03-15T16:10:41.763Z,11.1
2019-03-15T16:11:32.033Z,11.2
2019-03-15T16:12:21.953Z,11.2
2019-03-15T16:13:17.000Z,11.2
2019-03-15T16:14:02.124Z,11.2
2019-03-15T16:14:51.961Z,11.2
2019-03-15T16:15:43.428Z,11.1
2019-03-15T16:16:31.956Z,11.1
2019-03-15T16:17:22.049Z,11.1
2019-03-15T16:18:12.016Z,11.1
2019-03-15T16:19:09.921Z,11.1
2019-03-15T16:20:03.751Z,11.1
2019-03-15T16:20:53.821Z,11.1
2019-03-15T16:21:44.705Z,11.1
2019-03-15T16:22:33.821Z,11.1
2019-03-15T16:23:24.580Z,11.1
2019-03-15T16:24:14.600Z,11.1
2019-03-15T16:25:03.896Z,11.1
2019-03-15T16:25:53.875Z,11.1
2019-03-15T16:26:49.598Z,11.1
2019-03-15T16:27:45.047Z,11.1
2019-03-15T16:28:36.403Z,11
2019-03-15T16:29:29.884Z,11.1
2019-03-15T16:30:19.847Z,11
2019-03-15T16:31:09.908Z,11
2019-03-15T16:32:02.695Z,11
2019-03-15T16:32:50.168Z,11
2019-03-15T16:33:40.663Z,11
2019-03-15T16:34:34.761Z,11
2019-03-15T16:35:29.955Z,11
2019-03-15T16:36:21.003Z,11
2019-03-15T16:37:12.054Z,11
2019-03-15T16:38:02.723Z,11
2019-03-15T16:39:07.880Z,11
2019-03-15T16:41:15.662Z,11
2019-03-15T16:42:05.515Z,11
2019-03-15T16:42:57.555Z,11
2019-03-15T16:43:53.817Z,11
2019-03-15T16:46:16.543Z,11
2019-03-15T16:47:18.661Z,10.9
2019-03-15T16:48:04.407Z,10.9
2019-03-15T16:48:52.579Z,10.9
2019-03-15T16:49:47.305Z,10.9
2019-03-15T16:50:36.134Z,11
2019-03-15T16:51:26.348Z,11
2019-03-15T16:52:26.924Z,10.9
2019-03-15T16:53:18.160Z,10.9
2019-03-15T16:54:08.237Z,10.9
2019-03-15T16:54:58.508Z,10.9
2019-03-15T16:55:49.393Z,10.9
2019-03-15T16:56:39.144Z,10.9
2019-03-15T16:57:28.174Z,10.9
2019-03-15T16:58:18.910Z,11
2019-03-15T16:59:09.864Z,10.9
2019-03-15T16:59:59.811Z,11
2019-03-15T17:00:49.808Z,10.9
2019-03-15T17:01:40.813Z,10.9
2019-03-15T17:02:29.846Z,10.9
2019-03-15T17:03:19.764Z,10.9
2019-03-15T17:04:10.526Z,10.9
2019-03-15T17:05:00.693Z,10.9
2019-03-15T17:05:50.582Z,10.9
2019-03-15T17:06:40.543Z,10.9
2019-03-15T17:07:30.523Z,10.9
2019-03-15T17:08:20.515Z,10.9
2019-03-15T17:09:10.588Z,10.9
2019-03-15T17:10:00.671Z,10.9
2019-03-15T17:10:50.539Z,10.9
2019-03-15T17:11:41.879Z,10.9
2019-03-15T17:12:30.540Z,10.9
2019-03-15T17:13:20.600Z,10.9
2019-03-15T17:14:10.559Z,10.9
2019-03-15T17:15:00.571Z,10.9
2019-03-15T17:15:50.844Z,10.9
2019-03-15T17:16:40.830Z,10.9
2019-03-15T17:17:31.726Z,10.9
2019-03-15T17:18:21.834Z,10.9
2019-03-15T17:19:11.857Z,10.8
2019-03-15T17:20:02.455Z,10.8
2019-03-15T17:20:52.457Z,10.8
2019-03-15T17:21:45.050Z,10.8
2019-03-15T17:22:32.517Z,10.8
2019-03-15T17:23:22.447Z,10.8
2019-03-15T17:24:12.465Z,10.8